Time;durP1;ratioP1;P1;durP2;ratioP2;P2;SDS_P1;SDS_P2;PMS_P1;PMS_P2;Temp;Humidity;BMP_temperature;BMP_pressure;BME280_temperature;BME280_humidity;BME280_pressure;Samples;Min_cycle;Max_cycle;Signal;HPM_P1;HPM_P2
2023/06/26 00:03:00;;;;;;;8.32;4.80;;;28.60;57.50;;;;;;10107307;28;20044;-64
2023/06/26 00:07:51;;;;;;;6.15;4.05;;;28.30;57.60;;;;;;10109010;28;20039;-63
2023/06/26 00:12:41;;;;;;;8.73;4.60;;;28.10;58.00;;;;;;10125151;28;20020;-63
2023/06/26 00:17:36;;;;;;;6.55;5.00;;;28.20;58.40;;;;;;10115648;28;20056;-64
2023/06/26 00:22:27;;;;;;;7.25;4.85;;;28.20;58.80;;;;;;10113541;28;20184;-63
2023/06/26 00:27:17;;;;;;;7.00;4.63;;;27.90;59.10;;;;;;10108972;28;20606;-63
2023/06/26 00:32:08;;;;;;;8.30;5.07;;;27.80;59.70;;;;;;10113236;28;20020;-64
2023/06/26 00:37:00;;;;;;;7.47;4.65;;;27.70;59.70;;;;;;10104420;28;20434;-63
2023/06/26 00:41:50;;;;;;;6.60;4.65;;;27.70;60.20;;;;;;10084438;28;20057;-64
2023/06/26 00:46:41;;;;;;;5.68;3.90;;;27.40;60.30;;;;;;10117459;28;20091;-64
2023/06/26 00:51:32;;;;;;;8.73;4.47;;;27.40;60.80;;;;;;10127962;28;20511;-64
2023/06/26 00:56:24;;;;;;;7.18;4.60;;;27.30;61.10;;;;;;10124388;28;20137;-64
2023/06/26 01:01:17;;;;;;;5.97;3.70;;;27.20;61.70;;;;;;10118092;28;20087;-64
2023/06/26 01:06:11;;;;;;;5.57;3.80;;;27.00;62.20;;;;;;10068168;22;20049;-62
2023/06/26 01:11:02;;;;;;;7.00;3.83;;;27.00;62.80;;;;;;10057555;28;20021;-62
2023/06/26 01:15:53;;;;;;;6.10;3.92;;;26.70;63.20;;;;;;10058363;28;20497;-63
2023/06/26 01:20:45;;;;;;;4.88;3.88;;;26.50;63.60;;;;;;10058296;28;20045;-61
2023/06/26 01:25:59;;;;;;;7.38;4.35;;;26.30;64.60;;;;;;10044394;28;20029;-62
2023/06/26 01:30:51;;;;;;;5.83;4.00;;;26.00;65.70;;;;;;10056833;28;20021;-61
2023/06/26 01:35:42;;;;;;;5.68;3.97;;;26.10;66.00;;;;;;10055934;28;20026;-61
2023/06/26 01:40:33;;;;;;;6.18;3.92;;;26.20;66.10;;;;;;10060689;28;20451;-66
2023/06/26 01:45:29;;;;;;;5.43;3.92;;;26.20;66.30;;;;;;10056840;28;20084;-64
2023/06/26 01:50:28;;;;;;;5.50;3.70;;;26.10;66.70;;;;;;10056234;28;20036;-65
2023/06/26 01:55:33;;;;;;;5.10;3.85;;;26.10;67.30;;;;;;10056681;28;20536;-63
2023/06/26 02:00:25;;;;;;;5.43;3.60;;;25.90;67.90;;;;;;10050485;28;20125;-66
2023/06/26 02:05:16;;;;;;;7.40;4.00;;;25.70;68.10;;;;;;10055317;28;20041;-65
2023/06/26 02:10:07;;;;;;;7.03;4.35;;;25.60;68.40;;;;;;10056944;28;20029;-65
2023/06/26 02:14:58;;;;;;;6.28;4.32;;;25.60;68.50;;;;;;10057282;28;20025;-63
2023/06/26 02:19:48;;;;;;;5.85;4.18;;;25.70;68.60;;;;;;10048246;28;20050;-62
2023/06/26 02:24:39;;;;;;;5.40;4.07;;;25.60;68.80;;;;;;10059494;28;20029;-64
2023/06/26 02:29:30;;;;;;;6.63;4.28;;;25.40;68.80;;;;;;10055538;28;20608;-62
2023/06/26 02:34:20;;;;;;;4.35;3.70;;;25.30;69.00;;;;;;10055189;28;20018;-62
2023/06/26 02:39:11;;;;;;;5.72;3.63;;;25.20;69.20;;;;;;10057078;28;20037;-61
2023/06/26 02:44:02;;;;;;;6.13;4.10;;;25.20;69.00;;;;;;10055791;28;20028;-61
2023/06/26 02:48:53;;;;;;;6.22;4.00;;;25.20;69.10;;;;;;10056164;28;20042;-61
2023/06/26 02:53:43;;;;;;;7.70;4.40;;;25.20;69.30;;;;;;10062366;28;20030;-61
2023/06/26 02:58:34;;;;;;;4.90;3.85;;;25.10;69.30;;;;;;10056543;28;20060;-61
2023/06/26 03:03:24;;;;;;;6.28;4.40;;;24.90;69.60;;;;;;10087470;22;20076;-63
2023/06/26 03:08:16;;;;;;;6.72;4.32;;;24.90;69.90;;;;;;10097147;28;20475;-63
2023/06/26 03:13:06;;;;;;;6.70;4.57;;;24.90;70.30;;;;;;10077407;28;20040;-64
2023/06/26 03:17:57;;;;;;;6.75;4.10;;;24.90;70.10;;;;;;10092853;28;20075;-63
2023/06/26 03:22:47;;;;;;;6.90;4.47;;;24.80;70.50;;;;;;10093750;28;20052;-63
2023/06/26 03:27:38;;;;;;;6.85;4.32;;;24.80;70.50;;;;;;10075314;28;20025;-63
2023/06/26 03:32:28;;;;;;;6.93;4.35;;;24.70;70.80;;;;;;10101548;28;20357;-63
2023/06/26 03:37:19;;;;;;;6.70;4.30;;;24.40;71.20;;;;;;10090265;28;20033;-65
2023/06/26 03:42:10;;;;;;;7.85;5.45;;;24.30;71.40;;;;;;10070630;28;20095;-64
2023/06/26 03:47:00;;;;;;;5.03;4.05;;;24.40;71.50;;;;;;10082653;28;20039;-65
2023/06/26 03:51:51;;;;;;;6.20;4.30;;;24.50;71.60;;;;;;10080144;28;20013;-63
2023/06/26 03:56:42;;;;;;;6.82;4.32;;;24.50;71.80;;;;;;10091711;28;20497;-62
2023/06/26 04:06:33;;;;;;;5.28;3.67;;;24.50;72.20;;;;;;10066370;28;20128;-62
2023/06/26 04:11:24;;;;;;;7.68;4.50;;;24.40;72.60;;;;;;10065744;28;20116;-62
2023/06/26 04:16:15;;;;;;;7.13;4.20;;;24.40;72.60;;;;;;10074737;28;20017;-62
2023/06/26 04:21:11;;;;;;;7.78;4.47;;;24.70;72.30;;;;;;10066050;28;20068;-62
2023/06/26 04:26:03;;;;;;;7.32;4.55;;;24.70;72.40;;;;;;10062300;28;20407;-62
2023/06/26 04:30:53;;;;;;;7.55;4.03;;;24.70;72.50;;;;;;10078079;28;20598;-62
2023/06/26 04:35:48;;;;;;;7.65;4.28;;;24.50;73.50;;;;;;10072259;28;20029;-62
2023/06/26 04:40:39;;;;;;;7.80;4.40;;;24.50;73.70;;;;;;10061688;28;20029;-61
2023/06/26 04:45:29;;;;;;;10.15;4.50;;;24.40;73.10;;;;;;10061283;28;20469;-62
2023/06/26 04:50:20;;;;;;;6.90;4.53;;;24.40;73.20;;;;;;10075169;28;20036;-63
2023/06/26 04:55:10;;;;;;;8.38;5.05;;;24.50;73.20;;;;;;10070934;28;20541;-62
2023/06/26 05:00:04;;;;;;;7.45;4.82;;;24.50;73.20;;;;;;10058123;28;20044;-62
2023/06/26 05:04:54;;;;;;;8.73;4.72;;;24.50;73.40;;;;;;10056504;28;20077;-62
2023/06/26 05:09:45;;;;;;;7.40;4.50;;;24.60;73.30;;;;;;10083849;28;20482;-62
2023/06/26 05:14:36;;;;;;;6.90;4.13;;;24.50;73.60;;;;;;10066937;28;20017;-61
2023/06/26 05:19:26;;;;;;;7.13;4.25;;;24.60;73.30;;;;;;10063549;28;20423;-62
2023/06/26 05:24:19;;;;;;;5.82;4.07;;;24.70;73.30;;;;;;10060407;28;20087;-62
2023/06/26 05:29:09;;;;;;;9.48;4.85;;;24.80;73.20;;;;;;10082563;28;20090;-62
2023/06/26 05:34:02;;;;;;;7.63;4.53;;;24.70;73.90;;;;;;10086060;28;20037;-63
2023/06/26 05:38:53;;;;;;;8.15;4.53;;;24.90;73.40;;;;;;10074650;28;20091;-61
2023/06/26 05:43:44;;;;;;;7.60;5.07;;;25.10;72.80;;;;;;10078563;28;20321;-63
2023/06/26 05:48:34;;;;;;;6.60;4.70;;;25.30;72.80;;;;;;10074139;28;20126;-62
2023/06/26 05:53:25;;;;;;;8.95;4.63;;;25.40;72.80;;;;;;10060860;28;20030;-62
2023/06/26 05:58:17;;;;;;;9.18;5.43;;;25.60;72.60;;;;;;10058192;28;20041;-62
2023/06/26 06:03:10;;;;;;;11.25;5.03;;;25.50;72.60;;;;;;10055120;28;20044;-62
2023/06/26 06:08:01;;;;;;;8.07;4.25;;;25.50;72.60;;;;;;10084056;28;20529;-62
2023/06/26 06:12:52;;;;;;;9.80;5.10;;;25.60;72.50;;;;;;10070737;28;20031;-62
2023/06/26 06:17:42;;;;;;;7.68;4.30;;;25.40;72.80;;;;;;10062167;28;20033;-62
2023/06/26 06:22:33;;;;;;;7.78;4.45;;;25.40;72.90;;;;;;10063040;28;20025;-62
2023/06/26 06:27:23;;;;;;;7.82;4.40;;;25.60;72.60;;;;;;10065313;28;20030;-62
2023/06/26 06:32:14;;;;;;;6.20;4.50;;;25.60;72.80;;;;;;10082873;28;20417;-62
2023/06/26 06:37:05;;;;;;;7.00;4.30;;;25.60;72.60;;;;;;10092268;28;20024;-62
2023/06/26 06:41:55;;;;;;;8.20;4.82;;;25.60;72.90;;;;;;10081168;28;20119;-62
2023/06/26 06:46:46;;;;;;;7.00;4.93;;;25.50;72.80;;;;;;10083959;28;20122;-63
2023/06/26 06:51:37;;;;;;;6.18;4.50;;;25.80;72.80;;;;;;10044055;28;20037;-62
2023/06/26 06:56:27;;;;;;;6.20;5.05;;;26.00;72.40;;;;;;10069527;28;20084;-62
2023/06/26 07:01:18;;;;;;;8.00;4.65;;;26.50;72.10;;;;;;10062157;28;20575;-63
2023/06/26 07:06:09;;;;;;;7.65;5.20;;;26.70;71.90;;;;;;10084423;28;20064;-62
2023/06/26 07:10:59;;;;;;;8.00;4.22;;;26.90;71.90;;;;;;10061416;28;20172;-62
2023/06/26 07:15:50;;;;;;;5.13;4.22;;;27.00;71.70;;;;;;10069869;28;20020;-62
2023/06/26 07:20:41;;;;;;;6.70;4.70;;;27.00;71.60;;;;;;10071649;28;20474;-62
2023/06/26 07:25:32;;;;;;;8.10;5.85;;;27.00;71.70;;;;;;10065830;28;20545;-63
2023/06/26 07:30:24;;;;;;;7.50;5.18;;;27.00;71.60;;;;;;10069278;28;20033;-63
2023/06/26 07:35:15;;;;;;;6.20;4.65;;;27.10;71.50;;;;;;10088226;28;20025;-63
2023/06/26 07:40:06;;;;;;;6.20;4.15;;;27.10;72.00;;;;;;10079402;28;20033;-61
2023/06/26 07:44:57;;;;;;;6.38;4.15;;;27.30;71.30;;;;;;10082294;28;20480;-62
2023/06/26 07:49:48;;;;;;;6.68;4.20;;;27.20;71.10;;;;;;10076681;28;20025;-61
2023/06/26 07:54:38;;;;;;;6.30;4.78;;;27.10;71.00;;;;;;10046686;28;20029;-61
2023/06/26 07:59:30;;;;;;;10.00;4.65;;;27.30;70.80;;;;;;10064029;28;20037;-61
2023/06/26 08:04:26;;;;;;;6.93;4.25;;;27.50;70.70;;;;;;10068696;28;20426;-62
2023/06/26 08:09:18;;;;;;;5.40;4.18;;;27.50;70.70;;;;;;10079261;28;20041;-62
2023/06/26 08:14:09;;;;;;;5.50;4.10;;;27.70;70.70;;;;;;10068854;28;20021;-62
2023/06/26 08:19:01;;;;;;;7.90;3.75;;;27.60;70.90;;;;;;10073826;28;20037;-63
2023/06/26 08:23:51;;;;;;;5.20;3.97;;;27.50;71.00;;;;;;10068307;28;20063;-62
2023/06/26 08:28:42;;;;;;;5.25;4.35;;;27.70;71.20;;;;;;10063103;28;20075;-63
2023/06/26 08:33:32;;;;;;;6.43;3.67;;;27.80;71.10;;;;;;10086090;28;20359;-62
2023/06/26 08:38:23;;;;;;;7.35;4.30;;;28.00;71.00;;;;;;10087637;28;20068;-62
2023/06/26 08:43:14;;;;;;;6.00;4.15;;;28.00;70.90;;;;;;10080678;28;20108;-62
2023/06/26 08:48:07;;;;;;;4.82;3.65;;;28.20;70.80;;;;;;10080589;28;20555;-62
2023/06/26 08:53:12;;;;;;;5.15;4.35;;;28.30;70.60;;;;;;10063372;28;20038;-62
2023/06/26 08:58:02;;;;;;;;;;;28.40;70.40;;;;;;10063015;28;20041;-62
2023/06/26 09:02:53;;;;;;;3.53;3.08;;;28.70;70.00;;;;;;10056297;28;20267;-62
2023/06/26 09:07:44;;;;;;;6.07;2.95;;;28.80;69.90;;;;;;10058763;28;20037;-62
2023/06/26 09:12:36;;;;;;;5.57;3.33;;;28.90;69.70;;;;;;10066270;28;20033;-62
2023/06/26 09:17:30;;;;;;;4.43;3.03;;;29.00;69.50;;;;;;10065506;28;20045;-62
2023/06/26 09:22:22;;;;;;;6.05;3.90;;;28.70;69.50;;;;;;10060840;28;20083;-61
2023/06/26 09:27:13;;;;;;;4.65;3.22;;;28.60;69.50;;;;;;10060692;28;20025;-61
2023/06/26 09:32:04;;;;;;;6.28;3.58;;;28.70;69.30;;;;;;10077133;28;20107;-62
2023/06/26 09:36:55;;;;;;;3.78;3.03;;;28.40;69.20;;;;;;10083965;28;20039;-62
2023/06/26 09:41:46;;;;;;;4.07;2.50;;;28.30;69.30;;;;;;10067984;28;20187;-61
2023/06/26 09:46:38;;;;;;;4.32;3.22;;;28.50;69.10;;;;;;10080522;28;20021;-62
2023/06/26 09:51:32;;;;;;;4.30;3.38;;;28.60;68.90;;;;;;10066661;28;20028;-63
2023/06/26 09:56:23;;;;;;;;;;;28.40;68.90;;;;;;10067191;28;20029;-63
2023/06/26 10:01:14;;;;;;;5.13;3.15;;;28.50;68.60;;;;;;10060481;28;19924;-63
2023/06/26 10:06:06;;;;;;;4.20;2.75;;;28.20;68.50;;;;;;10097682;28;20049;-62
2023/06/26 10:10:57;;;;;;;3.90;2.50;;;28.30;68.30;;;;;;10081047;28;20052;-62
2023/06/26 10:15:50;;;;;;;3.97;2.83;;;28.20;68.20;;;;;;10059327;28;20282;-64
2023/06/26 10:20:42;;;;;;;5.70;3.10;;;28.20;68.10;;;;;;10071853;28;20529;-62
2023/06/26 10:25:37;;;;;;;3.90;3.05;;;28.40;67.80;;;;;;10066020;28;20029;-62
2023/06/26 10:30:32;;;;;;;4.50;2.50;;;28.40;67.60;;;;;;10067910;28;20033;-63
2023/06/26 10:35:24;;;;;;;4.65;2.75;;;28.40;67.40;;;;;;10091715;28;20023;-63
2023/06/26 10:40:22;;;;;;;4.07;2.88;;;28.50;67.40;;;;;;10072439;28;20140;-62
2023/06/26 10:45:17;;;;;;;3.10;2.33;;;28.60;66.90;;;;;;10084346;28;20021;-62
2023/06/26 10:50:21;;;;;;;3.42;2.40;;;28.70;66.60;;;;;;10072847;28;20031;-63
2023/06/26 10:55:13;;;;;;;3.27;2.20;;;29.00;66.00;;;;;;10052758;28;20539;-63
2023/06/26 11:00:11;;;;;;;3.53;2.00;;;29.10;65.80;;;;;;10050242;28;20037;-63
2023/06/26 11:05:06;;;;;;;4.22;2.33;;;29.00;65.00;;;;;;10069054;28;20066;-62
2023/06/26 11:10:17;;;;;;;3.42;2.40;;;28.90;64.90;;;;;;10072469;28;20040;-63
2023/06/26 11:15:12;;;;;;;6.60;2.13;;;28.90;63.60;;;;;;10078272;28;20033;-62
2023/06/26 11:20:07;;;;;;;5.53;2.50;;;28.90;64.10;;;;;;10069388;28;20045;-62
2023/06/26 11:24:59;;;;;;;2.47;2.10;;;29.20;63.70;;;;;;10068173;28;20101;-62
2023/06/26 11:29:50;;;;;;;4.65;2.20;;;29.20;63.60;;;;;;10064443;28;20218;-63
2023/06/26 11:34:42;;;;;;;2.97;1.83;;;29.50;63.30;;;;;;10090255;28;20153;-62
2023/06/26 11:39:33;;;;;;;3.47;1.95;;;29.40;63.20;;;;;;10083223;28;20169;-62
2023/06/26 11:44:28;;;;;;;3.20;1.85;;;29.50;63.00;;;;;;10085216;28;20432;-62
2023/06/26 11:49:22;;;;;;;2.58;2.22;;;29.50;62.90;;;;;;10073234;28;20287;-62
2023/06/26 11:54:14;;;;;;;3.70;2.17;;;29.20;62.90;;;;;;10062343;28;20047;-62
2023/06/26 11:59:08;;;;;;;3.55;2.35;;;29.20;62.90;;;;;;10063745;28;20098;-62
2023/06/26 12:04:01;;;;;;;4.95;2.63;;;29.40;62.60;;;;;;10065495;28;20725;-63
2023/06/26 12:08:52;;;;;;;6.30;2.30;;;29.60;62.50;;;;;;10087836;28;20037;-62
2023/06/26 12:13:42;;;;;;;3.15;2.00;;;30.00;62.20;;;;;;10078777;28;20036;-63
2023/06/26 12:18:35;;;;;;;3.53;2.00;;;30.00;61.90;;;;;;10070476;28;20456;-62
2023/06/26 12:23:33;;;;;;;2.80;2.00;;;30.20;61.80;;;;;;10065560;28;20028;-62
2023/06/26 12:28:24;;;;;;;5.43;2.10;;;30.50;61.20;;;;;;10065337;28;20025;-63
2023/06/26 12:33:18;;;;;;;4.10;2.20;;;30.70;61.40;;;;;;10082010;28;20509;-62
2023/06/26 12:38:15;;;;;;;3.72;2.25;;;31.00;61.10;;;;;;10086928;28;20041;-62
2023/06/26 12:43:05;;;;;;;3.47;2.30;;;31.60;60.70;;;;;;10079521;28;20475;-62
2023/06/26 12:48:07;;;;;;;3.85;2.53;;;31.50;60.70;;;;;;10069962;28;20038;-61
2023/06/26 12:52:58;;;;;;;3.90;2.20;;;31.80;60.30;;;;;;10061792;28;20044;-62
2023/06/26 12:57:48;;;;;;;4.20;2.47;;;32.30;60.20;;;;;;10061002;28;20036;-62
2023/06/26 13:02:39;;;;;;;6.57;2.67;;;33.10;59.70;;;;;;10055527;28;20046;-62
2023/06/26 13:07:29;;;;;;;4.32;2.85;;;34.00;58.70;;;;;;10067342;28;20034;-62
2023/06/26 13:12:20;;;;;;;5.80;2.67;;;34.50;58.30;;;;;;10044170;28;20120;-62
2023/06/26 13:17:11;;;;;;;3.83;2.80;;;34.70;57.70;;;;;;10066514;28;20381;-63
2023/06/26 13:22:02;;;;;;;6.07;3.03;;;34.30;57.80;;;;;;10061605;28;20156;-63
2023/06/26 13:26:53;;;;;;;5.30;3.45;;;34.50;57.00;;;;;;10059249;28;20144;-62
2023/06/26 13:31:44;;;;;;;4.35;2.88;;;35.00;56.50;;;;;;10089347;28;20027;-63
2023/06/26 13:36:35;;;;;;;3.97;2.70;;;35.40;55.70;;;;;;10082484;28;20107;-62
2023/06/26 13:41:25;;;;;;;5.63;3.23;;;35.20;55.00;;;;;;10074414;28;20482;-62
2023/06/26 13:46:17;;;;;;;5.10;3.60;;;35.50;55.00;;;;;;10072909;28;20503;-62
2023/06/26 13:51:07;;;;;;;5.88;2.85;;;35.80;54.40;;;;;;10067237;28;20041;-62
2023/06/26 13:55:58;;;;;;;3.37;3.07;;;35.70;54.20;;;;;;10064330;28;20025;-62
2023/06/26 14:00:49;;;;;;;5.27;3.77;;;35.60;54.00;;;;;;10057370;28;20632;-62
2023/06/26 14:05:39;;;;;;;3.97;3.50;;;35.50;53.40;;;;;;10072549;28;20041;-62
2023/06/26 14:10:31;;;;;;;6.40;4.17;;;35.50;53.00;;;;;;10078560;28;20418;-62
2023/06/26 14:15:21;;;;;;;8.45;3.88;;;35.60;52.80;;;;;;10066875;28;20068;-63
2023/06/26 14:20:15;;;;;;;5.40;3.67;;;35.80;52.40;;;;;;10049665;28;20072;-63
2023/06/26 14:25:07;;;;;;;7.07;4.47;;;35.90;51.80;;;;;;10060892;28;20452;-63
2023/06/26 14:29:57;;;;;;;5.13;3.72;;;35.00;52.30;;;;;;10073790;28;20117;-63
2023/06/26 14:34:48;;;;;;;4.27;3.87;;;35.20;51.90;;;;;;10083687;28;20410;-62
2023/06/26 14:39:39;;;;;;;5.40;4.57;;;35.60;51.30;;;;;;10074880;28;20046;-63
2023/06/26 14:44:29;;;;;;;3.90;2.88;;;35.00;51.70;;;;;;10071729;28;20029;-63
2023/06/26 14:49:20;;;;;;;5.03;3.33;;;34.60;51.80;;;;;;10083501;28;20029;-63
2023/06/26 14:54:10;;;;;;;5.97;2.95;;;34.20;51.80;;;;;;10072875;28;20053;-62
2023/06/26 14:59:01;;;;;;;3.58;3.17;;;34.50;51.50;;;;;;10065127;28;20041;-63
2023/06/26 15:03:52;;;;;;;3.70;2.35;;;34.20;51.40;;;;;;10071146;28;20049;-62
2023/06/26 15:08:42;;;;;;;3.20;2.20;;;33.70;51.20;;;;;;10091090;28;20025;-62
2023/06/26 15:13:33;;;;;;;4.05;2.10;;;33.80;51.00;;;;;;10073666;28;20075;-62
2023/06/26 15:18:23;;;;;;;2.63;1.95;;;33.40;50.50;;;;;;10074380;28;20030;-62
2023/06/26 15:23:14;;;;;;;4.20;1.55;;;33.60;50.00;;;;;;10068773;28;20026;-62
2023/06/26 15:28:08;;;;;;;3.85;1.52;;;33.00;50.20;;;;;;10066200;28;20368;-63
2023/06/26 15:32:58;;;;;;;2.88;1.92;;;33.30;49.60;;;;;;10090550;28;20103;-63
2023/06/26 15:37:49;;;;;;;3.08;1.58;;;33.70;48.90;;;;;;10080578;28;20130;-63
2023/06/26 15:42:47;;;;;;;2.33;1.50;;;32.70;49.30;;;;;;10078842;28;20496;-62
2023/06/26 15:47:38;;;;;;;3.97;1.55;;;32.00;49.30;;;;;;10081510;28;20029;-62
2023/06/26 15:52:28;;;;;;;2.55;1.77;;;31.60;49.50;;;;;;10069797;28;20033;-62
2023/06/26 15:57:19;;;;;;;2.20;1.23;;;32.90;48.50;;;;;;10062181;28;20557;-63
2023/06/26 16:02:09;;;;;;;3.88;1.23;;;34.80;47.40;;;;;;10063257;28;20064;-62
2023/06/26 16:07:00;;;;;;;1.90;1.50;;;35.20;47.00;;;;;;10094962;28;20086;-62
2023/06/26 16:11:51;;;;;;;2.75;1.20;;;35.60;47.50;;;;;;10073652;28;20026;-62
2023/06/26 16:16:41;;;;;;;2.50;1.30;;;35.60;46.30;;;;;;10074837;28;20021;-63
2023/06/26 16:21:32;;;;;;;3.28;1.30;;;35.90;46.30;;;;;;10068576;28;20041;-61
2023/06/26 16:26:23;;;;;;;2.63;1.05;;;36.00;46.20;;;;;;10060849;28;20411;-63
2023/06/26 16:31:13;;;;;;;4.07;1.63;;;35.80;46.60;;;;;;10085589;28;20108;-62
2023/06/26 16:36:04;;;;;;;1.20;0.85;;;34.60;46.50;;;;;;10085495;28;20172;-62
2023/06/26 16:40:56;;;;;;;1.53;0.83;;;34.50;46.70;;;;;;10078575;28;20081;-63
2023/06/26 16:45:46;;;;;;;2.63;1.13;;;36.10;45.80;;;;;;10079195;28;20148;-63
2023/06/26 16:50:37;;;;;;;1.80;1.20;;;36.30;45.30;;;;;;10067640;28;20065;-62
2023/06/26 16:55:28;;;;;;;2.67;1.10;;;36.20;45.00;;;;;;10055119;28;20976;-63
2023/06/26 17:00:19;;;;;;;3.60;1.38;;;36.60;44.60;;;;;;10030018;28;20120;-62
2023/06/26 17:05:10;;;;;;;1.83;1.13;;;36.70;44.90;;;;;;10066434;28;20511;-63
2023/06/26 17:10:01;;;;;;;3.78;1.27;;;36.60;44.60;;;;;;10059472;28;20099;-62
2023/06/26 17:14:52;;;;;;;6.57;1.95;;;36.00;44.80;;;;;;10060368;28;20039;-61
2023/06/26 17:19:42;;;;;;;3.90;1.60;;;35.60;44.80;;;;;;10058835;28;20128;-61
2023/06/26 17:24:33;;;;;;;5.68;1.50;;;35.10;45.00;;;;;;10059395;28;20121;-62
2023/06/26 17:29:24;;;;;;;2.40;1.38;;;33.90;45.70;;;;;;10049117;28;20055;-62
2023/06/26 17:34:14;;;;;;;2.30;1.27;;;33.80;45.60;;;;;;10068387;28;20053;-62
2023/06/26 17:39:05;;;;;;;3.17;1.02;;;33.80;45.90;;;;;;10078519;28;20502;-62
2023/06/26 17:43:56;;;;;;;2.33;1.13;;;32.90;46.60;;;;;;10081375;28;20294;-62
2023/06/26 17:48:46;;;;;;;4.68;1.17;;;32.20;47.80;;;;;;10074618;28;20033;-61
2023/06/26 17:53:38;;;;;;;2.97;1.30;;;32.40;47.80;;;;;;10061835;28;20040;-62
2023/06/26 17:58:28;;;;;;;3.35;1.17;;;32.00;48.20;;;;;;10055218;28;20440;-61
2023/06/26 18:03:19;;;;;;;5.70;1.05;;;31.20;48.80;;;;;;10055686;28;20057;-61
2023/06/26 18:08:11;;;;;;;2.63;1.48;;;30.50;49.80;;;;;;10061193;28;20073;-61
2023/06/26 18:13:03;;;;;;;3.78;1.20;;;29.50;50.70;;;;;;10055224;28;20282;-61
2023/06/26 18:17:53;;;;;;;3.58;1.17;;;28.90;51.30;;;;;;10055576;28;20491;-61
2023/06/26 18:22:44;;;;;;;2.55;1.33;;;28.50;51.60;;;;;;10065637;28;20079;-61
2023/06/26 18:27:35;;;;;;;4.90;1.52;;;28.10;51.80;;;;;;10055582;28;20037;-61
2023/06/26 18:32:25;;;;;;;6.10;1.30;;;27.70;52.30;;;;;;10087412;28;20022;-61
2023/06/26 18:37:16;;;;;;;4.40;1.40;;;27.30;52.80;;;;;;10081091;28;20431;-62
2023/06/26 18:42:07;;;;;;;2.55;1.90;;;27.40;52.80;;;;;;10068686;28;20037;-63
2023/06/26 18:46:58;;;;;;;3.05;1.25;;;27.30;52.90;;;;;;10073567;28;20687;-62
2023/06/26 18:51:49;;;;;;;4.15;1.23;;;27.20;53.10;;;;;;10064385;28;20546;-62
2023/06/26 18:56:40;;;;;;;3.25;1.85;;;27.00;53.20;;;;;;10064571;28;20029;-61
2023/06/26 19:01:30;;;;;;;6.10;2.30;;;26.90;53.60;;;;;;10062583;28;20048;-63
2023/06/26 19:06:21;;;;;;;4.10;1.27;;;26.60;53.90;;;;;;10066796;28;20055;-61
2023/06/26 19:11:13;;;;;;;3.53;1.40;;;26.70;54.10;;;;;;10075705;28;20033;-62
2023/06/26 19:16:04;;;;;;;1.42;0.90;;;26.70;54.00;;;;;;10072850;28;20021;-61
2023/06/26 19:20:55;;;;;;;3.58;1.27;;;26.50;54.00;;;;;;10070168;28;20511;-62
2023/06/26 19:25:46;;;;;;;5.15;1.23;;;26.50;54.10;;;;;;10045267;28;20026;-63
2023/06/26 19:30:40;;;;;;;2.90;1.55;;;26.40;54.50;;;;;;10085914;28;20049;-54
2023/06/26 19:35:31;;;;;;;1.85;1.10;;;26.10;55.00;;;;;;10081393;28;20036;-59
2023/06/26 19:40:22;;;;;;;8.32;1.77;;;26.20;54.80;;;;;;10071952;28;20041;-62
2023/06/26 19:45:13;;;;;;;3.35;1.30;;;26.30;55.20;;;;;;10077934;28;20375;-61
2023/06/26 19:50:04;;;;;;;3.80;1.80;;;26.20;55.20;;;;;;10069151;28;20100;-60
2023/06/26 19:54:54;;;;;;;2.95;1.60;;;26.20;55.40;;;;;;10071074;28;20027;-57
2023/06/26 19:59:45;;;;;;;4.95;1.58;;;26.00;55.60;;;;;;10050991;28;20120;-59
2023/06/26 20:04:35;;;;;;;4.70;1.60;;;25.90;55.80;;;;;;10056770;28;20049;-57
2023/06/26 20:09:30;;;;;;;2.13;1.20;;;25.70;56.10;;;;;;10058614;28;20029;-63
2023/06/26 20:14:21;;;;;;;;;;;25.80;56.20;;;;;;10052602;28;20125;-62
2023/06/26 20:19:11;;;;;;;2.42;1.30;;;25.80;56.00;;;;;;10054871;28;20354;-62
2023/06/26 20:24:02;;;;;;;3.60;1.80;;;25.90;56.10;;;;;;10055681;28;20034;-64
2023/06/26 20:28:53;;;;;;;4.22;1.75;;;25.80;56.10;;;;;;10057362;28;20057;-64
2023/06/26 20:33:43;;;;;;;3.67;1.30;;;25.80;56.10;;;;;;10059635;28;20483;-63
2023/06/26 20:38:34;;;;;;;3.55;1.40;;;25.80;56.30;;;;;;10057657;28;20040;-64
2023/06/26 20:43:25;;;;;;;2.88;1.20;;;25.90;56.40;;;;;;10053353;28;20033;-64
2023/06/26 20:48:16;;;;;;;2.75;1.35;;;25.90;56.50;;;;;;10027117;28;20026;-60
2023/06/26 20:53:07;;;;;;;4.47;1.63;;;26.00;56.60;;;;;;10054968;28;20360;-59
2023/06/26 20:57:57;;;;;;;3.80;1.40;;;26.30;56.40;;;;;;10052932;28;20120;-60
2023/06/26 21:02:48;;;;;;;2.75;1.20;;;26.30;56.70;;;;;;10009274;28;1229666;-58
2023/06/26 21:07:39;;;;;;;2.08;1.00;;;26.10;56.80;;;;;;10078627;28;20040;-59
2023/06/26 21:12:30;;;;;;;3.97;2.47;;;26.40;56.90;;;;;;10042651;28;20055;-56
2023/06/26 21:17:20;;;;;;;3.42;1.30;;;26.10;56.90;;;;;;10049627;28;20039;-54
2023/06/26 21:22:11;;;;;;;3.53;1.58;;;25.90;57.30;;;;;;10059251;28;20041;-54
2023/06/26 21:27:02;;;;;;;3.00;1.30;;;25.80;57.20;;;;;;10058725;28;20038;-57
2023/06/26 21:31:53;;;;;;;2.63;1.30;;;26.00;57.10;;;;;;10076662;28;20021;-58
2023/06/26 21:36:43;;;;;;;3.17;1.58;;;25.80;57.20;;;;;;10057448;28;20034;-59
2023/06/26 21:41:34;;;;;;;3.72;1.33;;;25.80;57.30;;;;;;10067730;28;20041;-59
2023/06/26 21:46:25;;;;;;;3.75;1.50;;;25.70;57.20;;;;;;10073227;28;20043;-60
2023/06/26 21:51:15;;;;;;;2.33;1.00;;;25.40;57.40;;;;;;10070282;28;20518;-59
2023/06/26 21:56:06;;;;;;;2.95;1.17;;;25.50;57.50;;;;;;10057913;28;20402;-60
2023/06/26 22:00:57;;;;;;;2.67;1.10;;;25.40;57.30;;;;;;10053544;28;20463;-55
2023/06/26 22:05:47;;;;;;;3.13;1.40;;;25.40;57.50;;;;;;10080088;28;20056;-59
2023/06/26 22:10:38;;;;;;;5.82;1.80;;;25.10;57.70;;;;;;10068888;28;20471;-57
2023/06/26 22:15:29;;;;;;;2.42;1.20;;;25.10;57.90;;;;;;10064342;28;20104;-60
2023/06/26 22:20:21;;;;;;;3.22;2.03;;;25.00;58.10;;;;;;10065774;28;20049;-60
2023/06/26 22:25:13;;;;;;;3.03;1.20;;;25.00;58.00;;;;;;10059559;28;20395;-58
2023/06/26 22:30:04;;;;;;;4.50;1.50;;;25.10;58.00;;;;;;10069337;28;20036;-59
2023/06/26 22:34:57;;;;;;;2.55;1.05;;;25.10;58.00;;;;;;10065269;28;20033;-59
2023/06/26 22:39:48;;;;;;;1.85;1.23;;;25.00;58.10;;;;;;10056748;28;20602;-59
2023/06/26 22:44:39;;;;;;;3.38;1.02;;;24.60;58.70;;;;;;10065135;28;20108;-59
2023/06/26 22:49:29;;;;;;;2.80;1.45;;;24.50;59.20;;;;;;10063603;28;20037;-59
2023/06/26 22:54:20;;;;;;;4.00;1.30;;;24.40;59.30;;;;;;10055478;28;20037;-59
2023/06/26 22:59:11;;;;;;;4.60;2.03;;;24.20;59.60;;;;;;10066629;28;20044;-59
2023/06/26 23:04:01;;;;;;;2.70;1.02;;;24.40;59.60;;;;;;10060998;28;20049;-59
2023/06/26 23:08:54;;;;;;;2.30;1.30;;;24.30;59.60;;;;;;10079918;28;20026;-58
2023/06/26 23:13:44;;;;;;;7.18;1.60;;;24.10;60.00;;;;;;10080598;28;20029;-60
2023/06/26 23:18:35;;;;;;;2.33;1.30;;;24.20;60.00;;;;;;10076040;28;20041;-58
2023/06/26 23:23:25;;;;;;;5.47;1.80;;;24.00;60.40;;;;;;10068926;28;20407;-59
2023/06/26 23:28:16;;;;;;;3.90;1.65;;;24.10;60.50;;;;;;10061977;28;20049;-59
2023/06/26 23:33:07;;;;;;;2.08;1.30;;;24.00;60.80;;;;;;10048138;28;20029;-59
2023/06/26 23:38:00;;;;;;;2.75;1.05;;;24.00;60.90;;;;;;10080680;28;20470;-59
2023/06/26 23:42:51;;;;;;;5.25;1.30;;;24.00;61.10;;;;;;10078278;28;20045;-60
2023/06/26 23:47:47;;;;;;;3.70;1.25;;;24.00;61.20;;;;;;10050359;28;20499;-59
2023/06/26 23:52:38;;;;;;;1.92;1.27;;;24.00;61.60;;;;;;10046864;28;20041;-60
2023/06/26 23:57:28;;;;;;;2.63;1.67;;;23.90;61.80;;;;;;10063455;28;20025;-60
